EDDR

Saarbrücken Airport

Airport
ICAO code
EDDR
IATA Code
SCN
Summary
ICAO Region
EUR
ICAO Territory
Location

Saarbrücken, Saarland

Serving
Saarbrücken
Coordinates
49° 12' 59" N , 7° 6' 42" E
KCC
Metar
Observation
EDDR 032020Z AUTO 28010KT 9999 OVC006 07/06 Q1031 BECMG BKN004
Station
Saarbruecken / Ensheim
Date/Time
2023-02-03 20:20:00
Wind direction
280°
Wind speed
10 kts
Lowest cloud amount
overcast
Temperature
7°C
Dew point
6°C
Humidity
93%
QNH
1031 hPa
Weather condition
n/a

Saarbrücken Airport, or Ensheim Airport, is a minor international airport in Saarbrücken, the capital of the German state of Saarland.

Climatology

Temperate Marine climate/Oceanic climate (Köppen climate classification Cfb) - Moderately cool summer and comparatively warm winter.

Runways

Designator Length Width Surface Rops
09L/27R 545 50 GRS No/No
9/27 2000 45 ASP Yes/Yes

Airport map

Aerial View

SKYbrary Partners:

Safety knowledge contributed by: